createdAt,value
2022-09-26T00:04:59.216Z,8.6
2022-09-26T00:10:03.704Z,8.5
2022-09-26T00:15:08.260Z,8.5
2022-09-26T00:20:12.836Z,8.5
2022-09-26T00:25:16.332Z,8.5
2022-09-26T00:30:20.909Z,8.5
2022-09-26T00:35:25.453Z,8.5
2022-09-26T00:40:29.055Z,8.5
2022-09-26T00:45:33.491Z,8.5
2022-09-26T00:50:38.073Z,8.5
2022-09-26T00:55:41.666Z,8.5
2022-09-26T01:00:46.113Z,8.4
2022-09-26T01:05:50.730Z,8.4
2022-09-26T01:10:54.173Z,8.4
2022-09-26T01:15:58.747Z,8.4
2022-09-26T01:21:03.302Z,8.4
2022-09-26T01:26:07.766Z,8.4
2022-09-26T01:31:11.405Z,8.4
2022-09-26T01:36:15.902Z,8.4
2022-09-26T01:41:20.400Z,8.4
2022-09-26T01:46:23.980Z,8.4
2022-09-26T01:51:28.531Z,8.5
2022-09-26T01:56:33.005Z,8.5
2022-09-26T02:01:36.680Z,8.5
2022-09-26T02:06:41.145Z,8.6
2022-09-26T02:11:44.672Z,8.6
2022-09-26T02:16:49.252Z,8.6
2022-09-26T02:21:53.770Z,8.6
2022-09-26T02:26:57.317Z,8.6
2022-09-26T02:32:01.874Z,8.6
2022-09-26T02:37:06.393Z,8.6
2022-09-26T02:42:09.880Z,8.6
2022-09-26T02:47:14.438Z,8.6
2022-09-26T02:52:18.981Z,8.6
2022-09-26T02:57:22.543Z,8.7
2022-09-26T03:02:27.068Z,8.7
2022-09-26T03:07:31.614Z,8.7
2022-09-26T03:12:36.134Z,8.8
2022-09-26T03:17:39.669Z,8.8
2022-09-26T03:22:44.260Z,8.8
2022-09-26T03:27:48.747Z,8.8
2022-09-26T03:32:52.267Z,8.8
2022-09-26T03:37:56.946Z,8.8
2022-09-26T03:43:01.334Z,8.8
2022-09-26T03:48:04.915Z,8.8
2022-09-26T03:53:09.454Z,8.9
2022-09-26T03:58:13.958Z,8.8
2022-09-26T04:03:17.558Z,8.9
2022-09-26T04:08:22.058Z,8.8
2022-09-26T04:13:50.191Z,8.8
2022-09-26T04:18:31.110Z,8.8
2022-09-26T04:23:34.773Z,8.8
2022-09-26T04:28:39.232Z,8.8
2022-09-26T04:33:43.766Z,8.7
2022-09-26T04:38:47.317Z,8.8
2022-09-26T04:43:51.878Z,8.7
2022-09-26T04:48:56.400Z,8.7
2022-09-26T04:53:59.952Z,8.7
2022-09-26T04:59:04.456Z,8.7
2022-09-26T05:04:08.990Z,8.7
2022-09-26T05:09:12.649Z,8.7
2022-09-26T05:14:17.053Z,8.7
2022-09-26T05:19:21.609Z,8.8
2022-09-26T05:24:26.200Z,8.8
2022-09-26T05:29:29.674Z,8.8
2022-09-26T05:34:34.233Z,8.8
2022-09-26T05:39:42.278Z,8.8
2022-09-26T05:44:42.321Z,8.8
2022-09-26T05:49:46.857Z,8.8
2022-09-26T05:54:51.377Z,8.8
2022-09-26T05:59:54.912Z,8.8
2022-09-26T06:04:59.469Z,8.8
2022-09-26T06:10:04.084Z,8.8
2022-09-26T06:15:07.522Z,8.9
2022-09-26T06:20:12.123Z,8.8
2022-09-26T06:25:15.680Z,8.9
2022-09-26T06:30:20.171Z,8.9
2022-09-26T06:35:24.703Z,8.8
2022-09-26T06:40:28.388Z,8.9
2022-09-26T06:45:32.801Z,8.8
2022-09-26T06:50:37.342Z,8.8
2022-09-26T06:55:40.878Z,8.8
2022-09-26T07:00:45.533Z,8.8
2022-09-26T07:05:49.933Z,8.9
2022-09-26T07:10:54.469Z,8.9
2022-09-26T07:15:58.059Z,9
2022-09-26T07:21:02.528Z,9.1
2022-09-26T07:26:07.097Z,9
2022-09-26T07:31:10.754Z,9
2022-09-26T07:36:15.186Z,9.1
2022-09-26T07:41:19.927Z,9.2
2022-09-26T07:46:23.311Z,9.2
2022-09-26T07:51:27.787Z,9.4
2022-09-26T07:56:32.352Z,9.1
2022-09-26T08:01:36.001Z,9.2
2022-09-26T08:06:40.393Z,9.2
2022-09-26T08:11:45.014Z,9.3
2022-09-26T08:16:49.463Z,9.2
2022-09-26T08:21:53.012Z,9.1
2022-09-26T08:26:57.578Z,9.1
2022-09-26T08:32:02.085Z,9
2022-09-26T08:37:05.616Z,9.1
2022-09-26T08:42:10.206Z,9.2
2022-09-26T08:47:14.728Z,9.1
2022-09-26T08:52:18.236Z,9.1
2022-09-26T08:57:22.828Z,9.3
2022-09-26T09:02:27.531Z,9.3
2022-09-26T09:07:30.842Z,9.3
2022-09-26T09:12:35.436Z,9.3
2022-09-26T09:17:39.930Z,9.5
2022-09-26T09:22:44.431Z,9.5
2022-09-26T09:27:55.510Z,9.3
2022-09-26T09:32:52.588Z,9.4
2022-09-26T09:37:57.055Z,9.4
2022-09-26T09:43:00.640Z,9.3
2022-09-26T09:48:05.171Z,9.2
2022-09-26T09:53:09.721Z,9.3
2022-09-26T09:58:13.373Z,9.3
2022-09-26T10:03:17.872Z,9.5
2022-09-26T10:08:22.329Z,9.5
2022-09-26T10:13:25.913Z,9.5
2022-09-26T10:18:30.386Z,9.5
2022-09-26T10:23:34.938Z,9.5
2022-09-26T10:28:39.469Z,9.6
2022-09-26T10:33:43.041Z,9.6
2022-09-26T10:38:46.617Z,9.7
2022-09-26T10:43:51.103Z,9.6
2022-09-26T10:48:55.617Z,9.7
2022-09-26T10:53:59.187Z,9.7
2022-09-26T10:59:03.787Z,9.7
2022-09-26T11:04:08.412Z,9.7
2022-09-26T11:09:12.775Z,9.7
2022-09-26T11:14:16.390Z,9.7
2022-09-26T11:19:21.002Z,9.7
2022-09-26T11:24:25.402Z,9.7
2022-09-26T11:29:29.004Z,9.8
2022-09-26T11:34:33.484Z,9.7
2022-09-26T11:39:38.043Z,9.8
2022-09-26T11:44:41.596Z,10
2022-09-26T11:49:46.108Z,10.1
2022-09-26T11:54:50.639Z,10.1
2022-09-26T11:59:54.244Z,10
2022-09-26T12:04:58.708Z,10.1
2022-09-26T12:10:03.277Z,10.1
2022-09-26T12:15:07.859Z,10.1
2022-09-26T12:20:11.349Z,10.1
2022-09-26T12:25:20.048Z,10.2
2022-09-26T12:30:20.430Z,9.9
2022-09-26T12:35:23.970Z,10
2022-09-26T12:40:28.578Z,9.8
2022-09-26T12:45:33.040Z,9.7
2022-09-26T12:50:36.565Z,9.7
2022-09-26T12:55:41.108Z,9.8
2022-09-26T13:00:45.684Z,9.9
2022-09-26T13:05:49.214Z,10
2022-09-26T13:10:53.739Z,9.7
2022-09-26T13:15:58.473Z,9.7
2022-09-26T13:21:02.806Z,9.9
2022-09-26T13:26:06.366Z,9.7
2022-09-26T13:31:10.964Z,9.8
2022-09-26T13:36:15.424Z,9.6
2022-09-26T13:41:19.001Z,9.6
2022-09-26T13:46:23.652Z,9.6
2022-09-26T13:51:28.047Z,9.5
2022-09-26T13:56:31.572Z,9.6
2022-09-26T14:01:36.199Z,9.6
2022-09-26T14:06:40.635Z,9.8
2022-09-26T14:11:44.184Z,9.7
2022-09-26T14:16:48.761Z,9.8
2022-09-26T14:21:53.257Z,9.8
2022-09-26T14:26:57.821Z,9.8
2022-09-26T14:32:01.399Z,9.9
2022-09-26T14:37:05.869Z,9.9
2022-09-26T14:42:10.414Z,9.9
2022-09-26T14:47:14.037Z,9.9
2022-09-26T14:52:17.542Z,10
2022-09-26T14:57:22.092Z,10
2022-09-26T14:58:38.245Z,10
2022-09-26T14:59:54.359Z,10
2022-09-26T15:02:26.754Z,10
2022-09-26T15:03:42.762Z,10
2022-09-26T15:07:31.128Z,10
2022-09-26T15:12:34.690Z,10
2022-09-26T15:17:39.261Z,10
2022-09-26T15:22:43.747Z,10
2022-09-26T15:27:47.316Z,10
2022-09-26T15:32:51.877Z,10
2022-09-26T15:37:56.388Z,10
2022-09-26T15:42:59.930Z,10
2022-09-26T15:48:04.544Z,10.1
2022-09-26T15:53:08.989Z,10.1
2022-09-26T15:58:12.558Z,10.1
2022-09-26T16:03:17.081Z,10
2022-09-26T16:08:21.614Z,10
2022-09-26T16:13:26.132Z,9.9
2022-09-26T16:18:29.703Z,9.9
2022-09-26T16:23:34.239Z,9.9
2022-09-26T16:28:38.734Z,9.8
2022-09-26T16:33:42.307Z,9.8
2022-09-26T16:38:46.839Z,9.8
2022-09-26T16:43:51.350Z,9.8
2022-09-26T16:48:54.948Z,9.8
2022-09-26T16:53:59.484Z,9.8
2022-09-26T16:59:03.979Z,9.7
2022-09-26T17:04:07.648Z,9.8
2022-09-26T17:09:12.143Z,9.7
2022-09-26T17:14:16.665Z,9.7
2022-09-26T17:19:21.145Z,9.7
2022-09-26T17:24:24.723Z,9.7
2022-09-26T17:29:29.232Z,9.7
2022-09-26T17:34:33.807Z,9.8
2022-09-26T17:39:37.313Z,9.7
2022-09-26T17:44:41.881Z,9.7
2022-09-26T17:49:46.405Z,9.6
2022-09-26T17:54:49.961Z,9.6
2022-09-26T17:59:54.500Z,9.6
2022-09-26T18:04:59.036Z,9.6
2022-09-26T18:10:02.537Z,9.6
2022-09-26T18:15:07.108Z,9.6
2022-09-26T18:20:11.646Z,9.6
2022-09-26T18:25:16.155Z,9.6
2022-09-26T18:30:19.724Z,9.6
2022-09-26T18:35:24.299Z,9.6
2022-09-26T18:40:28.811Z,9.6
2022-09-26T18:45:32.327Z,9.6
2022-09-26T18:50:36.918Z,9.6
2022-09-26T18:55:41.360Z,9.6
2022-09-26T19:00:44.952Z,9.6
2022-09-26T19:05:49.512Z,9.6
2022-09-26T19:10:53.066Z,9.6
2022-09-26T19:15:57.711Z,9.6
2022-09-26T19:21:02.132Z,9.6
2022-09-26T19:26:05.636Z,9.7
2022-09-26T19:31:10.241Z,9.7
2022-09-26T19:36:14.773Z,9.7
2022-09-26T19:41:18.283Z,9.7
2022-09-26T19:46:22.927Z,9.7
2022-09-26T19:51:27.344Z,9.7
2022-09-26T19:56:30.888Z,9.7
2022-09-26T20:01:35.599Z,9.7
2022-09-26T20:06:39.984Z,9.7
2022-09-26T20:11:44.475Z,9.7
2022-09-26T20:16:48.108Z,9.7
2022-09-26T20:21:52.573Z,9.7
2022-09-26T20:26:57.115Z,9.7
2022-09-26T20:32:00.626Z,9.7
2022-09-26T20:37:05.261Z,9.8
2022-09-26T20:42:09.727Z,9.8
2022-09-26T20:47:13.317Z,9.8
2022-09-26T20:52:17.824Z,9.8
2022-09-26T20:57:22.351Z,9.8
2022-09-26T21:02:25.941Z,9.8
2022-09-26T21:07:30.429Z,9.8
2022-09-26T21:12:34.985Z,9.8
2022-09-26T21:17:39.517Z,9.8
2022-09-26T21:22:43.053Z,9.8
2022-09-26T21:27:47.542Z,9.7
2022-09-26T21:32:52.081Z,9.8
2022-09-26T21:37:55.696Z,9.7
2022-09-26T21:43:00.230Z,9.7
2022-09-26T21:48:04.716Z,9.7
2022-09-26T21:53:08.283Z,9.7
2022-09-26T21:58:12.844Z,9.7
2022-09-26T22:03:17.353Z,9.7
2022-09-26T22:08:20.878Z,9.7
2022-09-26T22:13:25.401Z,9.8
2022-09-26T22:18:29.964Z,9.8
2022-09-26T22:23:34.486Z,9.8
2022-09-26T22:28:38.024Z,9.8
2022-09-26T22:33:42.576Z,9.8
2022-09-26T22:38:47.105Z,9.8
2022-09-26T22:43:50.649Z,9.8
2022-09-26T22:48:55.154Z,9.8
2022-09-26T22:53:59.750Z,9.7
2022-09-26T22:59:03.316Z,9.7
2022-09-26T23:04:07.805Z,9.7
2022-09-26T23:09:12.476Z,9.6
2022-09-26T23:14:15.871Z,9.6
2022-09-26T23:19:20.437Z,9.6
2022-09-26T23:24:24.013Z,9.6
2022-09-26T23:29:28.513Z,9.5
2022-09-26T23:34:33.029Z,9.5
2022-09-26T23:39:36.625Z,9.5
2022-09-26T23:44:41.121Z,9.5
2022-09-26T23:49:45.637Z,9.5
2022-09-26T23:54:49.237Z,9.5
2022-09-26T23:59:53.765Z,9.5
